ENRA/MQN METAR and TAF weather

Enter ICAO airport designator
Station Type Date Time Source
ENRA METAR 2021/03/05 22:20 UTC NOAA

ENRA 052220Z 32002KT 4000 -SN BR VV019 M03/M04 Q1003


Station Type Date Time Source
ENRA Decoded METAR 2021/03/05 22:20 UTC NOAA

Mo I Rana / Rossvoll, Norway (ENRA) 66-22N 014-18E 70M
Mar 05, 2021 - 05:20 PM EST / 2021.03.05 2220 UTC
Wind: from the NW (320 degrees) at 2 MPH (2 KT):0
Visibility: 2 mile(s):0
Sky conditions: obscured
Weather: light snow; mist
Temperature: 26 F (-3 C)
Dew Point: 24 F (-4 C)
Relative Humidity: 92%
Pressure (altimeter): 29.62 in. Hg (1003 hPa)
ob: ENRA 052220Z 32002KT 4000 -SN BR VV019 M03/M04 Q1003
cycle: 22

Station Type Date Time Source
ENRA TAF UTC NOAA

Error!

Example: see airport list